Time;durP1;ratioP1;P1;durP2;ratioP2;P2;SDS_P1;SDS_P2;PMS_P1;PMS_P2;Temp;Humidity;BMP_temperature;BMP_pressure;BME280_temperature;BME280_humidity;BME280_pressure;Samples;Min_cycle;Max_cycle;Signal;HPM_P1;HPM_P2
2021/08/03 00:00:26;;;;;;;4.25;2.17;;;;;;;11.97;85.56;101407.66;10460383;28;20408;-65
2021/08/03 00:05:30;;;;;;;5.03;2.70;;;;;;;12.03;84.54;101406.47;10458995;28;20424;-67
2021/08/03 00:10:32;;;;;;;2.25;1.85;;;;;;;12.14;84.28;101408.50;10458913;28;20052;-64
2021/08/03 00:15:35;;;;;;;1.75;1.60;;;;;;;12.06;84.51;101399.28;10459469;28;20583;-65
2021/08/03 00:20:39;;;;;;;4.05;2.05;;;;;;;12.05;84.54;101394.97;10459601;28;20134;-66
2021/08/03 00:25:41;;;;;;;3.33;2.15;;;;;;;12.09;85.11;101390.41;10457969;28;20049;-65
2021/08/03 00:30:44;;;;;;;3.95;2.17;;;;;;;12.04;85.59;101382.78;10459204;28;20045;-67
2021/08/03 00:35:52;;;;;;;3.90;2.55;;;;;;;11.96;86.18;101384.97;10441358;28;20049;-64
2021/08/03 00:40:59;;;;;;;4.85;2.60;;;;;;;11.99;86.17;101379.56;10459244;28;20045;-65
2021/08/03 00:46:01;;;;;;;7.53;2.10;;;;;;;12.14;85.84;101385.75;10457269;28;20053;-65
2021/08/03 00:51:04;;;;;;;4.80;2.55;;;;;;;12.12;85.67;101378.88;10457031;28;20056;-65
2021/08/03 00:56:06;;;;;;;3.67;2.25;;;;;;;12.19;85.87;101381.09;10458055;28;20401;-64
2021/08/03 01:01:08;;;;;;;3.28;2.72;;;;;;;12.31;84.70;101376.94;10457971;28;20060;-66
2021/08/03 01:06:37;;;;;;;2.90;2.40;;;;;;;12.16;85.74;101368.13;10457929;28;20045;-65
2021/08/03 01:12:05;;;;;;;6.93;2.88;;;;;;;12.15;85.54;101366.44;10456836;28;20045;-65
2021/08/03 01:17:13;;;;;;;3.75;2.05;;;;;;;12.53;84.61;101358.19;10456224;28;20045;-66
2021/08/03 01:22:21;;;;;;;2.75;2.15;;;;;;;12.24;86.12;101372.97;10456500;28;20045;-66
2021/08/03 01:27:44;;;;;;;3.17;2.22;;;;;;;12.36;85.21;101371.44;10457326;28;20056;-65
2021/08/03 01:32:47;;;;;;;3.83;2.45;;;;;;;12.48;84.27;101360.25;10457579;28;20053;-64
2021/08/03 01:37:49;;;;;;;3.05;2.63;;;;;;;12.60;85.17;101358.69;10456697;28;20059;-65
2021/08/03 01:42:51;;;;;;;7.57;3.00;;;;;;;12.45;86.07;101355.16;10455412;28;20053;-65
2021/08/03 01:47:55;;;;;;;3.65;2.50;;;;;;;12.55;86.08;101363.38;10456476;28;20072;-64
2021/08/03 01:52:58;;;;;;;5.22;2.65;;;;;;;12.60;85.73;101364.78;10455265;28;20067;-64
2021/08/03 01:58:02;;;;;;;4.10;2.80;;;;;;;12.57;86.05;101364.13;10456275;28;20481;-66
2021/08/03 02:03:05;;;;;;;7.30;3.30;;;;;;;12.58;85.09;101358.78;10456213;28;20045;-66
2021/08/03 02:08:07;;;;;;;8.00;3.35;;;;;;;12.55;85.89;101355.50;10454910;28;20073;-66
2021/08/03 02:13:10;;;;;;;6.15;3.33;;;;;;;12.62;86.38;101362.09;10456104;28;20378;-65
2021/08/03 02:18:15;;;;;;;4.88;3.30;;;;;;;12.61;85.98;101363.88;10455765;28;20044;-65
2021/08/03 02:23:17;;;;;;;4.43;3.60;;;;;;;12.63;86.09;101362.00;10455795;28;20378;-64
2021/08/03 02:28:20;;;;;;;6.40;3.42;;;;;;;12.89;85.63;101361.44;10459361;28;20045;-65
2021/08/03 02:33:27;;;;;;;6.57;3.05;;;;;;;12.62;86.54;101352.44;10464061;28;20051;-64
2021/08/03 02:38:34;;;;;;;4.95;3.28;;;;;;;12.50;86.51;101350.50;10462398;28;20045;-66
2021/08/03 02:43:37;;;;;;;4.38;3.75;;;;;;;12.68;86.35;101350.41;10462453;28;20056;-65
2021/08/03 02:48:40;;;;;;;6.90;3.00;;;;;;;12.63;86.19;101356.75;10463065;28;20045;-67
2021/08/03 02:53:50;;;;;;;4.32;3.28;;;;;;;12.66;85.54;101350.47;10462884;28;20386;-66
2021/08/03 02:59:01;;;;;;;8.65;3.40;;;;;;;12.81;85.43;101351.38;10462813;28;20052;-66
2021/08/03 03:04:39;;;;;;;5.70;3.17;;;;;;;12.87;85.39;101343.13;10461515;28;20045;-66
2021/08/03 03:09:42;;;;;;;3.60;3.08;;;;;;;12.68;86.07;101339.88;10450120;28;20048;-66
2021/08/03 03:14:45;;;;;;;6.45;3.45;;;;;;;12.76;86.18;101342.88;10460780;28;20060;-65
2021/08/03 03:19:48;;;;;;;6.10;3.67;;;;;;;12.44;86.33;101343.81;10462707;28;20066;-65
2021/08/03 03:24:51;;;;;;;8.30;4.45;;;;;;;12.66;86.05;101329.47;10461053;28;20052;-65
2021/08/03 03:29:54;;;;;;;4.15;3.75;;;;;;;12.50;86.00;101329.47;10461723;28;20052;-65
2021/08/03 03:34:58;;;;;;;5.60;3.83;;;;;;;12.56;85.51;101344.91;10461382;28;20059;-64
2021/08/03 03:40:01;;;;;;;9.88;4.68;;;;;;;12.49;86.23;101338.31;10459110;28;20045;-65
2021/08/03 03:45:04;;;;;;;6.63;3.83;;;;;;;12.64;85.63;101339.19;10460534;28;20064;-66
2021/08/03 03:50:12;;;;;;;6.03;4.68;;;;;;;12.57;86.19;101327.34;10461290;28;20070;-64
2021/08/03 03:55:17;;;;;;;8.52;5.45;;;;;;;12.67;86.69;101328.50;10459400;28;20057;-67
2021/08/03 04:00:20;;;;;;;7.13;5.32;;;;;;;12.85;86.08;101331.03;10459331;28;20056;-64
2021/08/03 04:05:23;;;;;;;8.15;7.05;;;;;;;12.68;86.54;101330.22;10459137;28;20052;-65
2021/08/03 04:10:34;;;;;;;7.57;6.05;;;;;;;12.78;86.13;101330.53;10458864;28;20064;-64
2021/08/03 04:15:37;;;;;;;10.97;7.70;;;;;;;12.69;86.49;101331.06;10459631;28;20056;-65
2021/08/03 04:20:39;;;;;;;10.82;8.13;;;;;;;12.69;86.06;101328.44;10459569;28;20041;-66
2021/08/03 04:25:42;;;;;;;12.90;7.78;;;;;;;12.72;86.01;101336.13;10459172;28;20041;-68
2021/08/03 04:30:44;;;;;;;11.73;7.72;;;;;;;12.70;86.59;101328.34;10459140;28;20045;-64
2021/08/03 04:35:51;;;;;;;12.57;8.45;;;;;;;12.91;86.29;101331.50;10458807;28;20584;-64
2021/08/03 04:40:54;;;;;;;11.95;9.35;;;;;;;13.00;85.60;101335.38;10457368;28;20486;-64
2021/08/03 04:45:56;;;;;;;15.82;11.23;;;;;;;12.95;85.79;101332.16;10458533;28;20057;-66
2021/08/03 04:50:58;;;;;;;15.48;12.05;;;;;;;13.16;86.44;101330.91;10457415;28;20044;-64
2021/08/03 04:56:01;;;;;;;18.25;13.43;;;;;;;13.17;86.39;101329.94;10458351;28;20049;-64
2021/08/03 05:01:03;;;;;;;18.42;11.85;;;;;;;13.29;86.14;101325.72;10458544;28;20041;-65
2021/08/03 05:06:06;;;;;;;19.33;14.05;;;;;;;13.09;85.88;101324.28;10457696;28;20428;-64
2021/08/03 05:11:08;;;;;;;25.63;15.10;;;;;;;13.02;86.87;101334.34;10458287;28;20049;-66
2021/08/03 05:16:10;;;;;;;18.95;15.32;;;;;;;13.12;86.12;101337.25;10457482;28;20055;-64
2021/08/03 05:21:13;;;;;;;18.17;14.30;;;;;;;13.30;85.91;101334.50;10457446;28;20055;-65
2021/08/03 05:26:16;;;;;;;19.65;14.50;;;;;;;13.38;86.78;101332.25;10456945;28;20048;-65
2021/08/03 05:31:18;;;;;;;14.63;11.85;;;;;;;13.53;85.76;101331.34;10457203;28;20075;-66
2021/08/03 05:36:24;;;;;;;14.73;12.23;;;;;;;13.41;85.79;101332.06;10457305;28;20053;-65
2021/08/03 05:41:26;;;;;;;20.95;15.98;;;;;;;13.23;85.87;101336.63;10456700;28;20041;-66
2021/08/03 05:46:30;;;;;;;20.52;15.68;;;;;;;13.60;86.69;101328.31;10456917;28;20061;-65
2021/08/03 05:51:32;;;;;;;21.65;16.88;;;;;;;13.67;86.11;101319.13;10456487;28;20374;-66
2021/08/03 05:56:36;;;;;;;26.08;19.70;;;;;;;13.38;86.99;101319.97;10456364;28;20507;-64
2021/08/03 06:01:38;;;;;;;23.20;18.95;;;;;;;13.90;85.86;101320.28;10456506;28;20056;-66
2021/08/03 06:06:43;;;;;;;21.73;17.02;;;;;;;14.25;85.56;101315.41;10464684;28;20041;-66
2021/08/03 06:11:47;;;;;;;24.23;18.98;;;;;;;14.23;84.42;101321.72;10465136;28;20045;-65
2021/08/03 06:16:53;;;;;;;24.15;18.88;;;;;;;14.24;84.05;101324.25;10464482;28;20056;-65
2021/08/03 06:22:00;;;;;;;25.13;18.13;;;;;;;13.89;85.60;101308.09;10462715;28;20505;-65
2021/08/03 06:27:05;;;;;;;27.20;15.55;;;;;;;13.90;86.05;101318.53;10463755;28;20507;-66
2021/08/03 06:32:09;;;;;;;19.50;15.48;;;;;;;14.02;85.68;101308.13;10463885;28;20048;-63
2021/08/03 06:37:13;;;;;;;23.70;17.55;;;;;;;14.58;84.35;101305.41;10463658;28;20041;-65
2021/08/03 06:42:33;;;;;;;24.83;19.52;;;;;;;14.47;85.16;101309.59;10463156;28;20048;-67
2021/08/03 06:47:55;;;;;;;27.33;20.33;;;;;;;14.67;84.77;101302.19;10462341;28;20055;-65
2021/08/03 06:53:00;;;;;;;25.00;18.60;;;;;;;14.43;85.52;101313.38;10462989;28;20045;-66
2021/08/03 06:58:04;;;;;;;29.02;21.90;;;;;;;14.55;85.52;101311.72;10462961;28;20052;-68
2021/08/03 07:03:08;;;;;;;30.33;22.25;;;;;;;14.69;84.34;101310.81;10462750;28;20111;-67
2021/08/03 07:08:12;;;;;;;32.40;26.38;;;;;;;14.42;84.90;101306.41;10462884;28;20052;-65
2021/08/03 07:13:17;;;;;;;32.17;24.33;;;;;;;14.80;83.20;101312.75;10461476;28;20052;-71
2021/08/03 07:18:20;;;;;;;27.35;24.08;;;;;;;15.19;83.00;101305.72;10460115;28;20064;-69
2021/08/03 07:23:23;;;;;;;29.30;22.55;;;;;;;15.24;81.77;101304.44;10461966;28;20375;-72
2021/08/03 07:28:25;;;;;;;34.85;24.67;;;;;;;14.84;83.22;101304.56;10461526;28;20049;-69
2021/08/03 07:33:28;;;;;;;26.98;24.08;;;;;;;15.44;81.92;101306.66;10460564;28;20056;-71
2021/08/03 07:38:31;;;;;;;26.67;21.42;;;;;;;15.65;79.71;101310.44;10459908;28;20069;-68
2021/08/03 07:43:33;;;;;;;24.85;20.40;;;;;;;15.71;80.29;101304.72;10459673;28;20404;-72
2021/08/03 07:48:35;;;;;;;25.67;22.02;;;;;;;15.75;80.92;101306.22;10459685;28;20048;-68
2021/08/03 07:53:38;;;;;;;23.42;20.63;;;;;;;16.30;78.34;101313.75;10460908;28;20073;-69
2021/08/03 07:58:40;;;;;;;29.92;22.33;;;;;;;16.23;79.88;101301.94;10459294;28;20501;-71
2021/08/03 08:03:42;;;;;;;23.63;20.75;;;;;;;16.50;78.70;101304.34;10459164;28;20049;-69
2021/08/03 08:08:45;;;;;;;23.42;20.92;;;;;;;16.37;77.24;101301.75;10460073;28;20048;-70
2021/08/03 08:13:47;;;;;;;25.35;19.67;;;;;;;16.98;77.96;101291.06;10442665;28;20059;-69
2021/08/03 08:18:49;;;;;;;20.48;18.40;;;;;;;17.75;73.89;101287.69;10459795;28;20044;-69
2021/08/03 08:23:52;;;;;;;25.90;17.85;;;;;;;18.25;73.08;101281.94;10457789;28;20503;-67
2021/08/03 08:28:54;;;;;;;20.40;18.00;;;;;;;18.73;72.22;101278.81;10459149;28;20051;-69
2021/08/03 08:33:57;;;;;;;24.25;16.95;;;;;;;17.57;71.96;101282.06;10459424;28;20052;-67
2021/08/03 08:38:59;;;;;;;16.67;14.70;;;;;;;17.45;71.37;101278.56;10459000;28;20067;-66
2021/08/03 08:44:02;;;;;;;19.27;14.93;;;;;;;17.29;71.29;101293.13;10440934;28;20063;-68
2021/08/03 08:49:06;;;;;;;20.30;15.00;;;;;;;17.01;71.69;101282.03;10458475;28;20045;-67
2021/08/03 08:54:08;;;;;;;20.42;15.80;;;;;;;17.86;71.51;101283.34;10456976;28;20492;-68
2021/08/03 08:59:11;;;;;;;21.67;15.60;;;;;;;18.22;70.39;101278.69;10458099;28;20397;-68
2021/08/03 09:04:14;;;;;;;18.50;14.85;;;;;;;18.25;69.73;101281.09;10457699;28;20060;-66
2021/08/03 09:09:19;;;;;;;21.23;13.82;;;;;;;17.42;69.17;101284.09;10457723;28;20049;-69
2021/08/03 09:14:38;;;;;;;18.90;13.68;;;;;;;17.46;67.99;101297.94;10457756;28;20140;-68
2021/08/03 09:19:42;;;;;;;17.42;14.35;;;;;;;17.34;71.23;101306.84;10457334;28;20041;-67
2021/08/03 09:24:47;;;;;;;23.10;13.95;;;;;;;17.30;69.27;101298.31;10456150;28;20045;-68
2021/08/03 09:29:49;;;;;;;17.20;15.35;;;;;;;17.57;71.61;101305.88;10457132;28;20064;-67
2021/08/03 09:35:09;;;;;;;18.55;15.48;;;;;;;17.74;71.95;101309.00;10456842;28;20515;-69
2021/08/03 09:40:30;;;;;;;20.38;15.35;;;;;;;17.63;71.31;101302.75;10457437;28;20047;-70
2021/08/03 09:45:34;;;;;;;19.45;17.10;;;;;;;17.65;72.21;101299.97;10456714;28;20508;-67
2021/08/03 09:51:00;;;;;;;24.05;16.55;;;;;;;17.42;72.87;101309.75;10456478;28;20049;-66
2021/08/03 09:56:02;;;;;;;25.73;19.85;;;;;;;17.07;73.03;101311.50;10456424;28;20374;-69
2021/08/03 10:01:37;;;;;;;26.02;19.30;;;;;;;17.07;72.75;101300.91;10456866;28;20045;-68
2021/08/03 10:06:41;;;;;;;19.92;17.35;;;;;;;17.03;73.51;101302.13;10456264;28;20080;-67
2021/08/03 10:11:44;;;;;;;20.38;16.05;;;;;;;17.13;74.51;101306.69;10456054;28;20051;-66
2021/08/03 10:17:00;;;;;;;23.02;16.95;;;;;;;16.87;76.54;101305.09;10456202;28;20077;-62
2021/08/03 10:22:27;;;;;;;24.20;18.40;;;;;;;16.94;75.95;101294.88;10456263;28;20051;-63
2021/08/03 10:27:51;;;;;;;20.20;15.75;;;;;;;17.23;76.59;101292.66;10454719;28;20480;-63
2021/08/03 10:33:02;;;;;;;29.40;21.17;;;;;;;17.05;76.69;101291.44;10455022;28;20055;-65
2021/08/03 10:38:05;;;;;;;30.87;20.90;;;;;;;17.21;75.22;101288.44;10456403;28;20049;-64
2021/08/03 10:43:17;;;;;;;26.88;19.25;;;;;;;17.44;76.11;101297.22;10454470;28;20056;-63
2021/08/03 10:48:37;;;;;;;;;;;;;;;17.65;74.98;101289.38;10457950;28;20049;-64
2021/08/03 10:54:01;;;;;;;31.88;22.73;;;;;;;17.44;75.90;101282.19;10463082;28;20459;-64
2021/08/03 10:59:32;;;;;;;29.60;22.88;;;;;;;17.71;74.57;101288.91;10462631;28;20049;-63
2021/08/03 11:04:47;;;;;;;27.85;22.23;;;;;;;17.72;73.83;101282.66;10462705;28;20057;-63
2021/08/03 11:09:49;;;;;;;24.35;21.85;;;;;;;17.79;71.35;101270.59;10462426;28;20390;-63
2021/08/03 11:14:52;;;;;;;28.15;25.20;;;;;;;17.85;70.27;101271.88;10462354;28;20136;-64
2021/08/03 11:19:54;;;;;;;28.92;25.92;;;;;;;17.56;70.71;101266.28;10460775;28;20045;-63
2021/08/03 11:24:57;;;;;;;29.15;25.27;;;;;;;18.24;70.58;101260.84;10460754;28;20052;-64
2021/08/03 11:30:09;;;;;;;28.40;25.52;;;;;;;18.16;68.74;101269.44;10460588;28;20051;-64
2021/08/03 11:35:11;;;;;;;30.38;27.27;;;;;;;18.24;68.43;101259.06;10461747;28;20045;-64
2021/08/03 11:40:13;;;;;;;30.65;26.70;;;;;;;18.17;67.99;101266.69;10460038;28;20045;-63
2021/08/03 11:45:18;;;;;;;28.30;21.35;;;;;;;18.52;66.48;101257.56;10461248;28;20420;-65
2021/08/03 11:50:29;;;;;;;28.73;22.95;;;;;;;18.26;66.99;101257.13;10460856;28;20049;-63
2021/08/03 11:55:33;;;;;;;32.22;25.17;;;;;;;18.45;66.36;101251.13;10461432;28;20053;-64
2021/08/03 12:00:35;;;;;;;32.03;24.25;;;;;;;18.64;65.96;101245.09;10458092;28;20374;-63
2021/08/03 12:05:38;;;;;;;30.67;23.58;;;;;;;19.40;64.61;101236.00;10460381;28;20044;-64
2021/08/03 12:10:43;;;;;;;28.77;22.35;;;;;;;18.73;65.55;101244.34;10458919;28;20485;-64
2021/08/03 12:15:51;;;;;;;27.15;21.77;;;;;;;19.32;65.35;101244.66;10458827;28;20053;-64
2021/08/03 12:20:55;;;;;;;27.60;21.33;;;;;;;19.14;64.45;101235.63;10458947;28;20045;-64
2021/08/03 12:26:00;;;;;;;27.58;23.02;;;;;;;19.23;66.02;101230.38;10460143;28;20045;-64
2021/08/03 12:31:29;;;;;;;31.33;23.33;;;;;;;20.02;65.79;101231.38;10459710;28;20056;-64
2021/08/03 12:36:41;;;;;;;28.30;23.77;;;;;;;19.95;63.82;101227.63;10457923;28;20049;-64
2021/08/03 12:41:43;;;;;;;34.65;24.13;;;;;;;19.97;61.79;101223.00;10459536;28;20045;-63
2021/08/03 12:46:46;;;;;;;27.88;23.48;;;;;;;20.42;61.38;101220.63;10457413;28;20057;-63
2021/08/03 12:51:48;;;;;;;25.77;22.60;;;;;;;21.82;60.01;101224.28;10459260;28;20132;-64
2021/08/03 12:56:55;;;;;;;29.83;24.27;;;;;;;20.68;61.90;101224.50;10440754;28;20045;-64
2021/08/03 13:01:58;;;;;;;29.35;24.02;;;;;;;20.20;59.79;101226.22;10458517;28;20045;-63
2021/08/03 13:07:00;;;;;;;27.08;24.02;;;;;;;19.75;64.21;101235.56;10458168;28;20139;-63
2021/08/03 13:12:07;;;;;;;27.05;22.65;;;;;;;19.99;59.74;101240.50;10457523;28;20414;-63
2021/08/03 13:17:09;;;;;;;24.23;20.90;;;;;;;19.51;63.44;101237.72;10456956;28;20052;-64
2021/08/03 13:22:11;;;;;;;23.55;19.23;;;;;;;19.72;64.76;101235.81;10457559;28;20052;-63
2021/08/03 13:27:14;;;;;;;24.02;21.35;;;;;;;19.64;65.17;101225.03;10457349;28;20051;-64
2021/08/03 13:32:16;;;;;;;23.98;21.58;;;;;;;19.46;64.32;101222.19;10457133;28;20041;-64
2021/08/03 13:37:21;;;;;;;30.50;20.50;;;;;;;19.35;63.50;101225.81;10457153;28;20048;-64
2021/08/03 13:42:24;;;;;;;21.88;17.45;;;;;;;19.75;61.92;101218.78;10457095;28;20067;-63
2021/08/03 13:47:26;;;;;;;19.00;17.08;;;;;;;20.00;61.81;101220.06;10456685;28;20048;-63
2021/08/03 13:52:29;;;;;;;21.92;17.95;;;;;;;19.35;63.20;101219.63;10456998;28;20048;-62
2021/08/03 13:57:31;;;;;;;24.48;18.83;;;;;;;19.42;62.33;101224.28;10456539;28;20049;-63
2021/08/03 14:02:33;;;;;;;20.92;17.45;;;;;;;20.05;64.33;101223.13;10456236;28;20477;-63
2021/08/03 14:07:36;;;;;;;25.55;19.02;;;;;;;19.72;61.96;101211.91;10456218;28;20095;-64
2021/08/03 14:12:39;;;;;;;16.90;15.10;;;;;;;19.50;61.10;101218.28;10456523;28;20562;-63
2021/08/03 14:17:41;;;;;;;19.73;15.40;;;;;;;19.37;61.10;101218.53;10456148;28;20053;-63
2021/08/03 14:22:44;;;;;;;17.33;15.38;;;;;;;19.60;62.36;101215.66;10457227;28;20044;-63
2021/08/03 14:27:47;;;;;;;15.80;14.05;;;;;;;19.76;63.44;101216.00;10464193;28;20048;-63
2021/08/03 14:32:50;;;;;;;21.85;16.98;;;;;;;19.04;62.28;101212.53;10463890;28;20049;-63
2021/08/03 14:37:52;;;;;;;20.10;15.50;;;;;;;19.30;62.49;101212.94;10463422;28;20071;-63
2021/08/03 14:42:54;;;;;;;13.82;11.57;;;;;;;19.52;63.09;101220.78;10463342;28;20056;-63
2021/08/03 14:47:57;;;;;;;13.40;11.68;;;;;;;19.45;61.07;101210.75;10463451;28;20048;-63
2021/08/03 14:52:59;;;;;;;12.90;10.35;;;;;;;18.90;60.06;101203.13;10463431;28;20460;-63
2021/08/03 14:58:02;;;;;;;10.20;8.73;;;;;;;19.36;60.92;101197.44;10463095;28;20057;-63
2021/08/03 15:03:04;;;;;;;7.35;5.43;;;;;;;19.45;59.09;101193.94;10463431;28;20041;-63
2021/08/03 15:08:07;;;;;;;5.65;4.43;;;;;;;19.62;58.47;101192.47;10444887;28;20479;-63
2021/08/03 15:13:09;;;;;;;8.82;5.65;;;;;;;20.02;58.33;101194.19;10462593;28;20500;-63
2021/08/03 15:18:12;;;;;;;8.20;5.57;;;;;;;20.20;56.50;101199.63;10462274;28;20396;-62
2021/08/03 15:23:14;;;;;;;8.75;6.70;;;;;;;19.83;53.91;101195.84;10462128;28;20049;-63
2021/08/03 15:28:17;;;;;;;13.13;6.93;;;;;;;20.45;55.57;101197.38;10461826;28;20048;-62
2021/08/03 15:33:19;;;;;;;7.05;5.70;;;;;;;21.35;54.75;101203.94;10461199;28;20519;-62
2021/08/03 15:38:21;;;;;;;9.18;7.10;;;;;;;20.21;54.92;101190.69;10461554;28;20045;-62
2021/08/03 15:43:24;;;;;;;9.88;7.80;;;;;;;20.49;58.63;101186.28;10460425;28;20060;-62
2021/08/03 15:48:28;;;;;;;16.33;11.20;;;;;;;19.79;59.98;101196.28;10460724;28;20041;-63
2021/08/03 15:53:31;;;;;;;17.35;12.93;;;;;;;19.54;60.11;101205.59;10460986;28;20115;-63
2021/08/03 15:58:33;;;;;;;12.10;10.18;;;;;;;20.37;60.46;101200.75;10459398;28;20480;-63
2021/08/03 16:03:35;;;;;;;13.15;11.75;;;;;;;19.79;62.68;101202.44;10460995;28;20045;-63
2021/08/03 16:08:38;;;;;;;13.07;11.75;;;;;;;20.11;60.94;101197.84;10460251;28;20413;-63
2021/08/03 16:13:40;;;;;;;12.30;10.38;;;;;;;19.73;61.37;101202.94;10460441;28;20065;-63
2021/08/03 16:18:46;;;;;;;11.05;9.95;;;;;;;19.68;61.59;101194.56;10459644;28;20514;-63
2021/08/03 16:23:48;;;;;;;9.80;8.77;;;;;;;19.34;63.01;101192.25;10459503;28;20049;-63
2021/08/03 16:28:52;;;;;;;9.63;8.73;;;;;;;18.80;65.03;101201.38;10458061;28;20060;-63
2021/08/03 16:33:58;;;;;;;8.32;7.05;;;;;;;19.06;65.50;101202.66;10458096;28;20408;-63
2021/08/03 16:39:02;;;;;;;10.65;8.43;;;;;;;18.85;64.93;101207.16;10458317;28;20068;-63
2021/08/03 16:44:05;;;;;;;7.93;6.95;;;;;;;18.91;66.95;101196.00;10457614;28;20053;-63
2021/08/03 16:49:08;;;;;;;7.50;6.72;;;;;;;18.54;65.28;101189.38;10458214;28;20053;-63
2021/08/03 16:54:10;;;;;;;7.15;6.45;;;;;;;18.31;68.90;101193.97;10458220;28;20049;-63
2021/08/03 16:59:15;;;;;;;8.52;6.05;;;;;;;18.28;65.71;101196.88;10458102;28;20052;-62
2021/08/03 17:04:49;;;;;;;6.78;5.72;;;;;;;18.43;67.61;101202.69;10457310;28;20052;-63
2021/08/03 17:10:01;;;;;;;9.48;5.65;;;;;;;18.38;69.95;101204.88;10458719;28;20048;-64
2021/08/03 17:15:03;;;;;;;6.63;4.75;;;;;;;18.48;69.64;101208.44;10457733;28;20408;-69
2021/08/03 17:20:07;;;;;;;9.63;5.53;;;;;;;18.27;69.69;101204.94;10457577;28;20041;-67
2021/08/03 17:25:16;;;;;;;7.32;4.72;;;;;;;18.01;68.01;101224.69;10457573;28;20049;-70
2021/08/03 17:30:18;;;;;;;5.95;4.28;;;;;;;18.25;68.29;101209.53;10457168;28;20045;-68
2021/08/03 17:35:21;;;;;;;5.60;4.40;;;;;;;18.04;69.23;101223.59;10456929;28;20520;-66
2021/08/03 17:40:23;;;;;;;4.03;3.40;;;;;;;18.00;67.49;101223.03;10456928;28;20045;-68
2021/08/03 17:45:26;;;;;;;6.75;4.47;;;;;;;17.88;68.61;101229.28;10454214;28;20048;-66
2021/08/03 17:50:31;;;;;;;6.82;3.63;;;;;;;17.92;69.47;101227.25;10455235;28;20056;-67
2021/08/03 17:55:33;;;;;;;5.57;3.85;;;;;;;17.71;68.73;101233.28;10454942;28;20060;-65
2021/08/03 18:00:36;;;;;;;7.00;4.07;;;;;;;17.88;69.15;101221.34;10452207;28;20045;-69
2021/08/03 18:05:39;;;;;;;6.75;4.07;;;;;;;17.70;70.75;101230.75;10453283;28;20048;-66
2021/08/03 18:10:42;;;;;;;4.28;3.30;;;;;;;17.54;71.98;101236.47;10454703;28;20041;-70
2021/08/03 18:15:45;;;;;;;3.95;3.60;;;;;;;17.61;70.91;101230.53;10454345;28;20059;-67
2021/08/03 18:20:48;;;;;;;5.25;3.35;;;;;;;17.36;72.54;101236.94;10454326;28;20056;-68
2021/08/03 18:26:02;;;;;;;4.88;3.05;;;;;;;17.36;74.07;101239.59;10453941;28;20425;-65
2021/08/03 18:31:23;;;;;;;4.82;3.25;;;;;;;17.24;74.97;101240.56;10454030;28;20045;-67
2021/08/03 18:36:31;;;;;;;4.90;3.33;;;;;;;17.14;76.10;101243.09;10453660;28;20053;-68
2021/08/03 18:41:39;;;;;;;4.68;3.15;;;;;;;17.06;76.25;101243.69;10452436;28;20049;-65
2021/08/03 18:46:41;;;;;;;6.00;3.15;;;;;;;17.02;76.71;101246.69;10415449;28;1097743;-67
2021/08/03 18:51:44;;;;;;;4.20;3.58;;;;;;;16.77;78.67;101239.78;10437917;28;20443;-67
2021/08/03 18:56:47;;;;;;;3.30;2.95;;;;;;;16.80;78.68;101252.78;10455640;28;20045;-68
2021/08/03 19:01:49;;;;;;;4.72;3.67;;;;;;;16.83;79.73;101253.38;10454900;28;20045;-69
2021/08/03 19:12:21;;;;;;;6.57;3.42;;;;;;;16.68;78.29;101247.44;10461453;28;20127;-65
2021/08/03 19:17:42;;;;;;;7.93;3.42;;;;;;;16.76;77.98;101251.31;10461310;28;20049;-68
2021/08/03 19:22:46;;;;;;;7.22;3.05;;;;;;;16.58;78.65;101249.09;10462186;28;20041;-66
2021/08/03 19:27:49;;;;;;;4.00;3.08;;;;;;;16.54;77.43;101245.00;10461728;28;20059;-69
2021/08/03 19:32:52;;;;;;;6.85;3.78;;;;;;;16.55;77.98;101249.34;10461765;28;20057;-66
2021/08/03 19:37:55;;;;;;;5.90;3.03;;;;;;;16.41;78.98;101249.50;10460870;28;20052;-69
2021/08/03 19:42:59;;;;;;;6.07;4.13;;;;;;;16.52;78.58;101254.84;10461549;28;20049;-66
2021/08/03 19:48:09;;;;;;;9.70;4.88;;;;;;;16.51;77.42;101259.31;10461632;28;20045;-68
2021/08/03 19:53:13;;;;;;;4.20;3.78;;;;;;;16.45;78.76;101270.31;10461336;28;20052;-70
2021/08/03 19:58:18;;;;;;;4.30;3.58;;;;;;;16.53;78.37;101277.69;10460838;28;20053;-67
2021/08/03 20:03:21;;;;;;;9.55;4.13;;;;;;;16.21;79.13;101280.91;10459450;28;20049;-68
2021/08/03 20:08:24;;;;;;;7.95;4.50;;;;;;;16.23;79.71;101276.38;10459263;28;20147;-68
2021/08/03 20:13:27;;;;;;;3.88;3.45;;;;;;;15.89;80.88;101284.09;10460834;28;20049;-67
2021/08/03 20:18:30;;;;;;;6.85;3.97;;;;;;;15.71;81.91;101288.03;10441802;28;20516;-64
2021/08/03 20:23:32;;;;;;;13.05;4.38;;;;;;;15.70;81.83;101286.34;10458444;28;20041;-68
2021/08/03 20:28:46;;;;;;;6.82;3.15;;;;;;;15.66;81.73;101301.56;10441523;28;20481;-67
2021/08/03 20:33:51;;;;;;;4.70;3.47;;;;;;;15.61;81.47;101301.88;10459386;28;20045;-67
2021/08/03 20:38:59;;;;;;;4.60;3.80;;;;;;;15.56;81.57;101304.00;10459315;28;20483;-65
2021/08/03 20:44:02;;;;;;;6.75;4.32;;;;;;;15.32;82.34;101303.94;10458918;28;20139;-67
2021/08/03 20:49:04;;;;;;;7.28;4.15;;;;;;;15.29;82.34;101301.50;10458717;28;20056;-67
2021/08/03 20:54:07;;;;;;;6.93;4.13;;;;;;;15.12;83.55;101305.31;10458637;28;20056;-68
2021/08/03 20:59:09;;;;;;;6.03;4.03;;;;;;;15.22;82.99;101309.00;10457321;28;20048;-69
2021/08/03 21:04:15;;;;;;;5.00;3.80;;;;;;;15.12;83.26;101315.84;10457045;28;20480;-66
2021/08/03 21:09:18;;;;;;;5.07;3.90;;;;;;;15.03;83.39;101305.94;10456849;28;20128;-65
2021/08/03 21:14:20;;;;;;;4.80;3.78;;;;;;;14.86;83.80;101317.59;10457220;28;20049;-67
2021/08/03 21:19:23;;;;;;;14.25;4.13;;;;;;;14.77;84.00;101313.78;10457469;28;20048;-66
2021/08/03 21:24:25;;;;;;;5.28;3.78;;;;;;;14.76;83.43;101308.63;10458035;28;20056;-67
2021/08/03 21:29:27;;;;;;;6.82;4.40;;;;;;;14.45;84.44;101318.53;10455901;28;20049;-66
2021/08/03 21:34:30;;;;;;;9.38;4.82;;;;;;;14.35;84.39;101306.91;10457257;28;20048;-68
2021/08/03 21:39:32;;;;;;;7.90;4.78;;;;;;;14.20;84.67;101314.00;10457111;28;20045;-66
2021/08/03 21:44:34;;;;;;;7.20;4.93;;;;;;;14.20;84.04;101322.75;10456937;28;20048;-66
2021/08/03 21:49:37;;;;;;;7.35;5.03;;;;;;;14.18;83.89;101322.00;10455312;28;20504;-69
2021/08/03 21:54:39;;;;;;;8.55;5.43;;;;;;;14.05;83.83;101318.47;10456611;28;20420;-68
2021/08/03 21:59:42;;;;;;;5.40;4.70;;;;;;;13.91;84.26;101322.00;10456729;28;20048;-68
2021/08/03 22:04:44;;;;;;;8.73;4.78;;;;;;;13.82;84.50;101318.16;10456288;28;20396;-67
2021/08/03 22:09:46;;;;;;;5.15;4.55;;;;;;;13.77;84.30;101325.50;10456027;28;20412;-67
2021/08/03 22:14:49;;;;;;;7.18;5.68;;;;;;;13.68;85.34;101323.41;10456550;28;20095;-67
2021/08/03 22:19:51;;;;;;;5.88;5.25;;;;;;;13.62;85.01;101323.81;10455976;28;20056;-68
2021/08/03 22:24:54;;;;;;;7.35;5.38;;;;;;;13.55;84.73;101323.34;10454641;28;20041;-66
2021/08/03 22:29:56;;;;;;;6.00;5.40;;;;;;;13.49;84.91;101319.28;10454473;28;20041;-66
2021/08/03 22:34:59;;;;;;;8.38;5.57;;;;;;;13.45;84.08;101316.94;10455689;28;20056;-65
2021/08/03 22:40:02;;;;;;;6.97;5.47;;;;;;;13.34;84.93;101318.44;10454943;28;20064;-68
2021/08/03 22:45:05;;;;;;;6.55;5.82;;;;;;;13.26;85.04;101310.13;10458977;28;20061;-66
2021/08/03 22:50:07;;;;;;;9.10;5.68;;;;;;;13.20;84.58;101314.00;10463793;28;20049;-67
2021/08/03 22:55:11;;;;;;;7.65;6.30;;;;;;;13.15;85.08;101321.31;10462972;28;20053;-65
2021/08/03 23:00:13;;;;;;;9.25;6.28;;;;;;;13.10;84.98;101309.41;10461776;28;20516;-68
2021/08/03 23:05:15;;;;;;;7.40;5.43;;;;;;;13.15;85.00;101307.34;10461899;28;20052;-66
2021/08/03 23:10:18;;;;;;;6.03;5.20;;;;;;;12.99;84.94;101307.38;10462535;28;20131;-65